Time;durP1;ratioP1;P1;durP2;ratioP2;P2;SDS_P1;SDS_P2;PMS_P1;PMS_P2;Temp;Humidity;BMP_temperature;BMP_pressure;BME280_temperature;BME280_humidity;BME280_pressure;Samples;Min_cycle;Max_cycle;Signal;HPM_P1;HPM_P2
2021/10/06 00:01:04;;;;;;;22.30;14.58;;;;;;;10.19;73.90;97202.41;1746332;80;26418;-85
2021/10/06 00:03:31;;;;;;;22.13;14.25;;;;;;;10.23;73.98;97199.09;1745751;80;25739;-85
2021/10/06 00:05:58;;;;;;;21.80;14.28;;;;;;;10.26;74.02;97200.53;1724996;80;26511;-84
2021/10/06 00:08:24;;;;;;;22.98;14.80;;;;;;;10.29;74.01;97194.69;1745597;80;25697;-85
2021/10/06 00:10:51;;;;;;;22.15;13.88;;;;;;;10.25;74.01;97187.57;1749975;80;27408;-85
2021/10/06 00:13:18;;;;;;;24.80;16.32;;;;;;;10.22;73.94;97199.30;1736816;80;25724;-84
2021/10/06 00:15:46;;;;;;;24.40;15.32;;;;;;;10.23;74.05;97196.39;1744357;80;25721;-85
2021/10/06 00:18:14;;;;;;;25.23;15.55;;;;;;;10.28;74.15;97197.08;1730509;80;25680;-85
2021/10/06 00:20:42;;;;;;;24.45;16.42;;;;;;;10.26;74.15;97194.63;1726383;80;25802;-84
2021/10/06 00:23:09;;;;;;;23.60;15.15;;;;;;;10.25;74.05;97193.48;1723151;80;26825;-85
2021/10/06 00:25:35;;;;;;;21.23;13.53;;;;;;;10.22;74.07;97193.91;1742149;80;25692;-84
2021/10/06 00:28:03;;;;;;;24.12;15.55;;;;;;;10.18;74.10;97192.63;1749980;80;25938;-84
2021/10/06 00:30:29;;;;;;;22.07;13.08;;;;;;;10.18;74.17;97200.23;1750020;81;27014;-84
2021/10/06 00:32:56;;;;;;;22.52;14.65;;;;;;;10.17;74.23;97199.89;1747514;80;25702;-85
2021/10/06 00:35:22;;;;;;;18.60;13.15;;;;;;;10.16;74.32;97196.89;1703402;81;28175;-85
2021/10/06 00:37:49;;;;;;;20.60;13.80;;;;;;;10.15;74.31;97193.88;1716564;81;25847;-84
2021/10/06 00:40:16;;;;;;;23.55;13.98;;;;;;;10.15;74.33;97194.40;1704906;81;26371;-84
2021/10/06 00:42:42;;;;;;;19.17;13.13;;;;;;;10.11;74.30;97194.02;1715846;81;25853;-84
2021/10/06 00:45:09;;;;;;;22.87;13.45;;;;;;;10.07;74.36;97201.70;1721649;81;25826;-84
2021/10/06 00:47:37;;;;;;;18.02;12.85;;;;;;;10.06;74.36;97204.61;1712078;81;27429;-85
2021/10/06 00:50:05;;;;;;;20.00;11.80;;;;;;;10.04;74.46;97202.64;1707581;81;25720;-84
2021/10/06 00:52:31;;;;;;;17.95;12.47;;;;;;;10.02;74.47;97200.16;1707473;81;25672;-84
2021/10/06 00:54:58;;;;;;;17.20;12.45;;;;;;;10.01;74.50;97205.78;1715618;81;27504;-84
2021/10/06 00:57:25;;;;;;;19.98;13.00;;;;;;;9.97;74.48;97199.15;1714931;81;25762;-85
2021/10/06 00:59:51;;;;;;;20.45;13.13;;;;;;;9.96;74.62;97197.49;1696638;81;27471;-85
2021/10/06 01:02:18;;;;;;;23.77;14.23;;;;;;;9.93;74.72;97197.39;1703298;81;25734;-86
2021/10/06 01:04:45;;;;;;;24.70;15.38;;;;;;;9.91;74.82;97199.98;1704753;81;25786;-85
2021/10/06 01:07:11;;;;;;;22.93;14.65;;;;;;;9.90;75.00;97199.70;1696457;81;25812;-85
2021/10/06 01:09:39;;;;;;;21.75;14.05;;;;;;;9.89;75.14;97188.61;1698409;81;25753;-85
2021/10/06 01:12:06;;;;;;;19.80;12.95;;;;;;;9.88;75.24;97185.60;1704777;81;26833;-86
2021/10/06 01:14:32;;;;;;;18.52;12.28;;;;;;;9.90;75.42;97187.57;1704512;81;25889;-85
2021/10/06 01:16:59;;;;;;;19.40;13.55;;;;;;;9.92;75.45;97192.20;1704733;81;26366;-85
2021/10/06 01:19:29;;;;;;;18.60;12.35;;;;;;;9.96;75.61;97190.23;1704718;81;26361;-85
2021/10/06 01:21:58;;;;;;;17.42;13.00;;;;;;;9.97;75.58;97188.36;1696772;81;25762;-85
2021/10/06 01:24:26;;;;;;;19.10;12.78;;;;;;;10.00;75.62;97197.38;1706488;81;27372;-84
2021/10/06 01:26:53;;;;;;;24.43;14.10;;;;;;;10.02;75.66;97198.00;1718689;81;25712;-84
2021/10/06 01:29:21;;;;;;;23.12;14.00;;;;;;;10.05;75.67;97201.08;1721515;81;25759;-84
2021/10/06 01:31:49;;;;;;;20.68;13.75;;;;;;;10.10;75.59;97198.59;1721551;83;25610;-84
2021/10/06 01:34:21;;;;;;;23.70;13.55;;;;;;;10.14;75.59;97192.25;1726339;81;25869;-85
2021/10/06 01:36:52;;;;;;;21.10;13.70;;;;;;;10.15;75.51;97193.88;1750099;80;27381;-85
2021/10/06 01:39:20;;;;;;;20.57;13.15;;;;;;;10.17;75.53;97197.20;1748925;80;25898;-85
2021/10/06 01:41:48;;;;;;;20.27;13.15;;;;;;;10.18;75.56;97194.84;1749926;80;26557;-85
2021/10/06 01:44:18;;;;;;;18.92;12.70;;;;;;;10.19;75.57;97187.06;1749922;80;25745;-85
2021/10/06 01:46:45;;;;;;;18.17;12.68;;;;;;;10.19;75.68;97183.02;1750002;81;25955;-85
2021/10/06 01:49:12;;;;;;;21.12;12.95;;;;;;;10.15;75.64;97187.14;1738611;81;27660;-85
2021/10/06 01:51:38;;;;;;;19.17;12.63;;;;;;;10.15;75.66;97172.30;1749922;80;25621;-85
2021/10/06 01:54:05;;;;;;;18.73;12.78;;;;;;;10.17;75.70;97189.11;1736124;80;25864;-85
2021/10/06 01:56:34;;;;;;;21.80;12.93;;;;;;;10.17;75.73;97183.71;1749671;80;26425;-85
2021/10/06 01:59:01;;;;;;;18.87;13.30;;;;;;;10.14;75.72;97180.64;1749928;80;25700;-85
2021/10/06 02:01:28;;;;;;;19.27;12.75;;;;;;;10.16;75.77;97186.62;1749925;80;28696;-85
2021/10/06 02:03:55;;;;;;;25.35;13.20;;;;;;;10.21;75.79;97193.07;1748940;80;25732;-85
2021/10/06 02:06:22;;;;;;;18.27;12.65;;;;;;;10.23;75.77;97185.60;1730409;80;25845;-85
2021/10/06 02:08:48;;;;;;;20.02;12.23;;;;;;;10.27;75.79;97188.67;1743203;80;25748;-85
2021/10/06 02:11:15;;;;;;;20.70;12.13;;;;;;;10.29;75.78;97183.89;1735971;80;25705;-85
2021/10/06 02:13:42;;;;;;;17.92;12.00;;;;;;;10.29;75.77;97171.23;1749932;80;27996;-84
2021/10/06 02:16:08;;;;;;;17.85;12.30;;;;;;;10.29;75.82;97168.54;1749789;80;25804;-84
2021/10/06 02:18:36;;;;;;;19.85;11.33;;;;;;;10.30;75.83;97166.16;1740558;80;25948;-84
2021/10/06 02:21:03;;;;;;;23.00;12.40;;;;;;;10.33;75.87;97168.42;1745811;80;25745;-85
2021/10/06 02:23:29;;;;;;;17.30;11.80;;;;;;;10.33;75.86;97171.64;1749874;81;25672;-84
2021/10/06 02:25:56;;;;;;;21.27;11.25;;;;;;;10.32;75.84;97177.56;1736266;80;27447;-84
2021/10/06 02:28:23;;;;;;;21.70;12.05;;;;;;;10.31;75.88;97169.16;1749884;81;25753;-84
2021/10/06 02:30:49;;;;;;;18.80;11.65;;;;;;;10.32;75.94;97168.64;1749867;80;25783;-86
2021/10/06 02:33:17;;;;;;;19.23;11.63;;;;;;;10.33;75.98;97158.98;1734836;80;26592;-85
2021/10/06 02:35:44;;;;;;;19.40;11.97;;;;;;;10.33;76.01;97163.03;1749548;81;25757;-85
2021/10/06 02:38:11;;;;;;;18.87;12.15;;;;;;;10.34;76.08;97163.34;1736210;80;28126;-84
2021/10/06 02:40:37;;;;;;;16.12;11.83;;;;;;;10.38;76.08;97151.08;1741963;80;25762;-85
2021/10/06 02:43:04;;;;;;;15.90;11.45;;;;;;;10.41;76.12;97160.59;1730582;80;25765;-85
2021/10/06 02:45:32;;;;;;;17.12;10.95;;;;;;;10.42;76.18;97159.55;1749882;80;25856;-85
2021/10/06 02:47:58;;;;;;;17.48;11.18;;;;;;;10.41;76.28;97154.67;1750015;80;26373;-84
2021/10/06 02:50:26;;;;;;;17.10;11.75;;;;;;;10.35;76.24;97150.16;1749911;80;27377;-84
2021/10/06 02:52:52;;;;;;;19.25;11.93;;;;;;;10.37;76.34;97150.77;1749751;81;25851;-85
2021/10/06 02:55:21;;;;;;;16.32;10.53;;;;;;;10.39;76.40;97154.06;1736044;80;26271;-85
2021/10/06 02:57:47;;;;;;;17.05;11.73;;;;;;;10.36;76.39;97143.72;1750057;80;25741;-85
2021/10/06 03:00:15;;;;;;;20.43;12.63;;;;;;;10.39;76.45;97145.96;1734798;80;25676;-85
2021/10/06 03:02:42;;;;;;;19.10;11.70;;;;;;;10.38;76.46;97141.64;1749578;81;27308;-85
2021/10/06 03:05:11;;;;;;;19.40;11.25;;;;;;;10.40;76.48;97145.44;1749799;81;25668;-85
2021/10/06 03:07:39;;;;;;;17.20;11.55;;;;;;;10.44;76.55;97140.76;1743704;80;25752;-85
2021/10/06 03:10:09;;;;;;;18.65;11.75;;;;;;;10.44;76.55;97145.33;1737634;80;26372;-85
2021/10/06 03:12:36;;;;;;;16.87;12.07;;;;;;;10.41;76.66;97137.13;1744410;80;25676;-85
2021/10/06 03:15:05;;;;;;;16.32;11.83;;;;;;;10.42;76.65;97152.28;1741459;80;27940;-85
2021/10/06 03:17:32;;;;;;;20.45;12.07;;;;;;;10.42;76.78;97143.36;1749755;80;26282;-86
2021/10/06 03:19:58;;;;;;;19.92;11.90;;;;;;;10.46;76.76;97133.28;1749975;80;25664;-85
2021/10/06 03:22:25;;;;;;;23.32;13.20;;;;;;;10.48;76.81;97137.63;1749843;81;26284;-85
2021/10/06 03:24:52;;;;;;;21.30;11.78;;;;;;;10.53;76.75;97137.79;1730926;80;25790;-85
2021/10/06 03:27:18;;;;;;;20.08;11.63;;;;;;;10.58;76.70;97127.19;1741531;80;27351;-85
2021/10/06 03:29:45;;;;;;;20.12;11.60;;;;;;;10.62;76.71;97123.02;1746084;80;25889;-85
2021/10/06 03:32:12;;;;;;;23.50;12.13;;;;;;;10.64;76.78;97128.99;1739778;80;25876;-85
2021/10/06 03:34:39;;;;;;;17.25;11.12;;;;;;;10.62;76.78;97129.76;1752607;79;25856;-85
2021/10/06 03:37:05;;;;;;;18.65;12.15;;;;;;;10.63;76.77;97130.03;1755856;79;25863;-85
2021/10/06 03:39:32;;;;;;;15.88;10.13;;;;;;;10.69;76.83;97130.53;1763566;81;27392;-85
2021/10/06 03:41:58;;;;;;;16.62;9.80;;;;;;;10.72;76.93;97132.80;1761242;79;25707;-86
2021/10/06 03:44:25;;;;;;;15.75;9.93;;;;;;;10.75;76.86;97130.47;1758350;79;25909;-85
2021/10/06 03:46:52;;;;;;;15.03;10.00;;;;;;;10.79;76.90;97128.99;1763511;79;25809;-84
2021/10/06 03:49:19;;;;;;;16.42;11.10;;;;;;;10.86;76.88;97148.38;1763489;81;26080;-85
2021/10/06 03:51:45;;;;;;;16.15;10.82;;;;;;;10.88;76.90;97140.86;1757015;79;27340;-85
2021/10/06 03:54:12;;;;;;;18.62;11.28;;;;;;;10.92;76.85;97144.27;1761380;79;25716;-85
2021/10/06 03:56:38;;;;;;;26.93;12.50;;;;;;;10.94;76.83;97150.28;1763733;81;25733;-85
2021/10/06 03:59:05;;;;;;;21.57;12.65;;;;;;;10.98;76.80;97156.08;1755146;79;25826;-85
2021/10/06 04:01:32;;;;;;;23.27;13.13;;;;;;;11.00;76.76;97156.14;1763788;80;25259;-84
2021/10/06 04:03:58;;;;;;;23.18;12.55;;;;;;;11.06;76.86;97160.67;1762236;79;27530;-86
2021/10/06 04:06:25;;;;;;;23.50;12.60;;;;;;;11.08;76.77;97162.64;1762133;79;25716;-85
2021/10/06 04:08:52;;;;;;;27.40;13.10;;;;;;;11.10;76.75;97167.30;1763152;80;25465;-85
2021/10/06 04:11:18;;;;;;;17.30;11.90;;;;;;;11.12;76.88;97173.28;1756314;79;26088;-86
2021/10/06 04:13:45;;;;;;;20.57;11.10;;;;;;;11.09;76.88;97169.70;1755131;79;25275;-86
2021/10/06 04:16:12;;;;;;;18.75;12.18;;;;;;;11.12;77.00;97178.69;1759251;81;27345;-87
2021/10/06 04:18:41;;;;;;;15.63;11.28;;;;;;;11.15;76.98;97170.15;1762533;79;25789;-88
2021/10/06 04:21:08;;;;;;;19.30;11.75;;;;;;;11.19;77.05;97169.19;1748973;79;25799;-86
2021/10/06 04:23:34;;;;;;;16.05;11.22;;;;;;;11.21;77.16;97175.20;1761893;79;25711;-88
2021/10/06 04:26:01;;;;;;;16.75;11.68;;;;;;;11.22;77.19;97182.79;1742716;79;25685;-85
2021/10/06 04:28:28;;;;;;;15.08;11.25;;;;;;;11.23;77.28;97185.80;1757245;81;28125;-84
2021/10/06 04:30:54;;;;;;;18.00;11.22;;;;;;;11.25;77.27;97183.68;1750360;79;25777;-89
2021/10/06 04:33:21;;;;;;;18.48;12.33;;;;;;;11.29;77.29;97181.67;1763149;79;25843;-86
2021/10/06 04:35:48;;;;;;;16.85;11.63;;;;;;;11.29;77.50;97193.01;1748518;81;26391;-84
2021/10/06 04:38:14;;;;;;;21.45;12.00;;;;;;;11.25;77.61;97194.48;1746111;80;25752;-85
2021/10/06 04:40:41;;;;;;;20.25;12.13;;;;;;;11.26;77.69;97197.49;1733607;80;27385;-85
2021/10/06 04:43:11;;;;;;;19.48;11.83;;;;;;;11.28;77.83;97197.58;1741926;80;25671;-87
2021/10/06 04:45:39;;;;;;;20.82;12.58;;;;;;;11.31;77.83;97195.80;1742840;80;25472;-87
2021/10/06 04:48:06;;;;;;;19.85;12.88;;;;;;;11.37;77.80;97196.25;1740683;80;25763;-89
2021/10/06 04:50:33;;;;;;;18.80;12.35;;;;;;;11.39;77.97;97194.68;1741269;80;25730;-88
2021/10/06 04:52:59;;;;;;;18.20;11.70;;;;;;;11.38;78.11;97193.02;1738399;80;27978;-88
2021/10/06 04:55:26;;;;;;;15.05;11.45;;;;;;;11.34;78.26;97187.78;1747701;80;26432;-88
2021/10/06 04:57:54;;;;;;;19.23;13.13;;;;;;;11.33;78.37;97191.00;1739961;80;25764;-88
2021/10/06 05:00:21;;;;;;;17.23;11.53;;;;;;;11.35;78.44;97197.55;1746270;80;26468;-87
2021/10/06 05:02:48;;;;;;;18.77;11.28;;;;;;;11.36;78.65;97195.94;1748725;80;25732;-88
2021/10/06 05:05:14;;;;;;;23.62;12.18;;;;;;;11.37;78.89;97202.17;1737724;80;27354;-87
2021/10/06 05:07:41;;;;;;;19.12;12.65;;;;;;;11.34;79.05;97198.59;1749938;80;25744;-87
2021/10/06 05:10:09;;;;;;;23.38;14.55;;;;;;;11.35;79.13;97200.24;1744481;80;25691;-87
2021/10/06 05:12:36;;;;;;;25.90;14.87;;;;;;;11.36;79.24;97203.22;1742064;80;25779;-86
2021/10/06 05:15:03;;;;;;;18.80;13.38;;;;;;;11.34;79.36;97198.06;1749934;80;25752;-88
2021/10/06 05:17:29;;;;;;;20.40;13.08;;;;;;;11.37;79.41;97200.83;1736777;81;28214;-88
2021/10/06 05:19:56;;;;;;;18.23;12.25;;;;;;;11.38;79.53;97197.08;1743037;80;25885;-88
2021/10/06 05:22:23;;;;;;;19.95;11.85;;;;;;;11.42;79.55;97195.59;1730614;80;25796;-88
2021/10/06 05:24:49;;;;;;;15.60;11.83;;;;;;;11.47;79.60;97209.28;1749481;80;26359;-88
2021/10/06 05:27:16;;;;;;;19.73;12.28;;;;;;;11.49;79.65;97209.34;1750010;81;25874;-90
2021/10/06 05:29:43;;;;;;;19.45;12.45;;;;;;;11.53;79.75;97215.14;1749497;80;27409;-89
2021/10/06 05:32:09;;;;;;;22.20;13.45;;;;;;;11.55;79.78;97215.23;1749817;81;25859;-89
2021/10/06 05:34:36;;;;;;;24.32;16.23;;;;;;;11.59;79.84;97222.91;1748477;80;25802;-88
2021/10/06 05:37:03;;;;;;;31.87;18.50;;;;;;;11.59;79.85;97222.38;1749734;80;26567;-89
2021/10/06 05:39:29;;;;;;;33.00;21.82;;;;;;;11.61;79.85;97224.83;1749962;81;25745;-89
2021/10/06 05:41:56;;;;;;;34.18;20.05;;;;;;;11.61;79.78;97216.20;1736106;80;27569;-89
2021/10/06 05:44:22;;;;;;;31.60;21.10;;;;;;;11.64;79.74;97221.17;1749847;80;25880;-89
2021/10/06 05:46:49;;;;;;;35.98;21.30;;;;;;;11.69;79.67;97228.10;1748107;80;25744;-89
2021/10/06 05:49:16;;;;;;;36.65;21.57;;;;;;;11.72;79.69;97231.69;1749915;81;25737;-89
2021/10/06 05:51:43;;;;;;;34.78;19.67;;;;;;;11.78;79.66;97238.12;1749965;80;25824;-88
2021/10/06 05:54:09;;;;;;;37.25;19.92;;;;;;;11.81;79.61;97243.92;1749905;81;27367;-88
2021/10/06 05:56:36;;;;;;;36.65;20.00;;;;;;;11.85;79.57;97250.52;1749988;81;25682;-89
2021/10/06 05:59:02;;;;;;;29.95;19.87;;;;;;;11.87;79.55;97250.30;1736182;80;25769;-89
2021/10/06 06:01:29;;;;;;;35.80;20.43;;;;;;;11.88;79.61;97258.20;1740406;80;25798;-88
2021/10/06 06:03:56;;;;;;;39.78;21.40;;;;;;;11.89;79.61;97257.16;1746071;80;26384;-88
2021/10/06 06:06:23;;;;;;;56.75;25.27;;;;;;;11.90;79.70;97264.22;1741965;80;27325;-88
2021/10/06 06:08:49;;;;;;;50.85;23.80;;;;;;;11.92;79.65;97275.34;1730625;80;25707;-88
2021/10/06 06:11:16;;;;;;;51.53;23.85;;;;;;;11.92;79.69;97278.88;1749936;80;25857;-89
2021/10/06 06:13:43;;;;;;;46.88;22.00;;;;;;;11.93;79.64;97285.11;1737781;80;25766;-89
2021/10/06 06:16:09;;;;;;;46.30;21.62;;;;;;;11.95;79.72;97281.67;1734581;80;25714;-88
2021/10/06 06:18:36;;;;;;;43.35;21.10;;;;;;;11.99;79.72;97293.16;1739461;80;27558;-88
2021/10/06 06:21:02;;;;;;;47.98;23.10;;;;;;;12.02;79.77;97289.19;1746633;80;25950;-88
2021/10/06 06:23:31;;;;;;;59.48;23.47;;;;;;;12.04;79.71;97293.84;1749957;80;26339;-88
2021/10/06 06:25:58;;;;;;;56.77;25.08;;;;;;;12.06;79.75;97295.81;1749919;80;26390;-88
2021/10/06 06:28:24;;;;;;;63.42;24.02;;;;;;;12.09;79.82;97293.98;1749885;81;25924;-88
2021/10/06 06:30:51;;;;;;;87.17;28.23;;;;;;;12.10;79.96;97291.59;1736601;80;26969;-88
2021/10/06 06:33:18;;;;;;;83.30;27.45;;;;;;;12.12;80.09;97296.25;1735798;80;25732;-89
2021/10/06 06:35:44;;;;;;;78.25;27.30;;;;;;;12.15;80.09;97303.94;1749829;80;25778;-88
2021/10/06 06:38:11;;;;;;;66.75;26.68;;;;;;;12.20;80.18;97305.42;1749584;81;25916;-88
2021/10/06 06:40:41;;;;;;;59.75;24.75;;;;;;;12.27;80.19;97308.91;1749926;81;25820;-88
2021/10/06 06:43:10;;;;;;;56.73;25.23;;;;;;;12.33;80.21;97309.34;1736074;80;27488;-87
2021/10/06 06:45:37;;;;;;;54.42;24.32;;;;;;;12.37;80.32;97305.15;1749770;81;25817;-86
2021/10/06 06:48:05;;;;;;;49.67;23.20;;;;;;;12.40;80.46;97308.77;1749901;81;26266;-87
2021/10/06 06:50:33;;;;;;;45.17;22.02;;;;;;;12.42;80.49;97306.67;1750039;81;25935;-85
2021/10/06 06:53:00;;;;;;;42.45;19.45;;;;;;;12.44;80.57;97314.02;1749862;80;25712;-86
2021/10/06 06:55:26;;;;;;;33.02;18.40;;;;;;;12.46;80.70;97314.62;1749922;81;27526;-86
2021/10/06 06:57:53;;;;;;;30.68;18.60;;;;;;;12.50;80.89;97321.25;1739515;80;25965;-87
2021/10/06 07:00:20;;;;;;;38.40;23.90;;;;;;;12.53;80.95;97330.28;1747666;81;25805;-87
2021/10/06 07:02:46;;;;;;;39.15;23.60;;;;;;;12.57;80.86;97326.05;1749775;81;25827;-86
2021/10/06 07:05:13;;;;;;;30.82;22.73;;;;;;;12.63;80.85;97334.64;1725761;80;25684;-86
2021/10/06 07:07:39;;;;;;;37.30;22.93;;;;;;;12.71;80.80;97326.73;1730004;80;27597;-85
2021/10/06 07:10:07;;;;;;;37.48;22.67;;;;;;;12.80;80.78;97336.75;1739041;80;25755;-87
2021/10/06 07:12:34;;;;;;;40.45;24.90;;;;;;;12.85;80.76;97334.17;1732427;80;25877;-86
2021/10/06 07:15:00;;;;;;;44.35;27.02;;;;;;;12.90;80.77;97334.33;1744756;80;25857;-86
2021/10/06 07:17:27;;;;;;;55.45;29.85;;;;;;;12.93;80.69;97329.78;1735957;80;25761;-86
2021/10/06 07:19:53;;;;;;;42.88;24.57;;;;;;;12.97;80.75;97325.57;1749937;81;27518;-86
2021/10/06 07:22:20;;;;;;;45.17;24.45;;;;;;;13.00;80.71;97334.61;1749880;81;25244;-86
2021/10/06 07:24:46;;;;;;;65.37;31.40;;;;;;;13.04;80.71;97337.14;1750066;81;25698;-87
2021/10/06 07:27:13;;;;;;;69.03;31.73;;;;;;;13.10;80.70;97347.08;1750068;80;26288;-86
2021/10/06 07:29:40;;;;;;;60.48;30.68;;;;;;;13.12;80.62;97352.27;1750122;81;26401;-85
2021/10/06 07:32:07;;;;;;;53.45;27.50;;;;;;;13.15;80.61;97356.75;1749724;81;27538;-85
2021/10/06 07:34:34;;;;;;;50.35;28.77;;;;;;;13.19;80.58;97361.99;1749984;81;25695;-86
2021/10/06 07:37:00;;;;;;;50.95;27.22;;;;;;;13.22;80.48;97361.55;1749764;81;25736;-87
2021/10/06 07:39:27;;;;;;;53.55;28.52;;;;;;;13.25;80.50;97367.87;1749774;81;25806;-87
2021/10/06 07:41:53;;;;;;;55.58;28.80;;;;;;;13.29;80.55;97368.22;1736244;80;25670;-86
2021/10/06 07:44:20;;;;;;;46.13;27.60;;;;;;;13.32;80.56;97369.13;1739728;80;27352;-86
2021/10/06 07:46:47;;;;;;;41.28;25.32;;;;;;;13.36;80.49;97374.92;1746687;80;25745;-86
2021/10/06 07:49:14;;;;;;;44.77;24.47;;;;;;;13.38;80.49;97371.45;1750073;81;25726;-87
2021/10/06 07:51:41;;;;;;;41.75;22.95;;;;;;;13.39;80.49;97375.83;1750004;80;25710;-87
2021/10/06 07:54:07;;;;;;;33.08;22.30;;;;;;;13.41;80.48;97374.52;1750006;81;25766;-87
2021/10/06 07:56:34;;;;;;;33.13;22.87;;;;;;;13.42;80.36;97369.92;1750219;81;27359;-87
2021/10/06 07:59:01;;;;;;;37.03;21.97;;;;;;;13.42;80.32;97363.14;1744601;80;25769;-88
2021/10/06 08:01:27;;;;;;;35.63;23.62;;;;;;;13.43;80.32;97366.16;1741776;80;25801;-87
2021/10/06 08:03:54;;;;;;;30.27;21.37;;;;;;;13.43;80.30;97360.20;1746381;80;26478;-88
2021/10/06 08:06:20;;;;;;;33.60;22.27;;;;;;;13.44;80.38;97362.39;1740008;80;25733;-86
2021/10/06 08:08:47;;;;;;;28.47;20.97;;;;;;;13.47;80.51;97368.19;1749831;80;28222;-88
2021/10/06 08:11:14;;;;;;;28.65;18.45;;;;;;;13.47;80.57;97364.64;1749902;80;25834;-88
2021/10/06 08:13:40;;;;;;;22.95;17.17;;;;;;;13.49;80.57;97362.53;1736211;80;25746;-87
2021/10/06 08:16:07;;;;;;;27.62;16.17;;;;;;;13.52;80.49;97368.86;1744006;80;25796;-87
2021/10/06 08:18:34;;;;;;;24.35;17.42;;;;;;;13.54;80.43;97374.86;1730593;81;25702;-87
2021/10/06 08:21:01;;;;;;;22.40;15.25;;;;;;;13.55;80.44;97370.56;1730077;80;27059;-87
2021/10/06 08:23:30;;;;;;;21.95;14.10;;;;;;;13.55;80.29;97370.56;1730372;80;25734;-87
2021/10/06 08:25:56;;;;;;;20.50;13.50;;;;;;;13.55;79.96;97375.98;1733192;80;25678;-87
2021/10/06 08:28:22;;;;;;;17.52;13.45;;;;;;;13.54;79.91;97373.50;1741207;80;25746;-87
2021/10/06 08:30:49;;;;;;;18.70;13.90;;;;;;;13.52;79.88;97381.89;1745242;80;25777;-87
2021/10/06 08:33:16;;;;;;;17.37;14.23;;;;;;;13.52;79.88;97379.18;1750069;80;28105;-87
2021/10/06 08:35:43;;;;;;;24.02;14.90;;;;;;;13.53;79.85;97377.27;1749884;81;25990;-86
2021/10/06 08:38:09;;;;;;;24.55;16.00;;;;;;;13.52;79.90;97379.70;1731950;81;25295;-86
2021/10/06 08:40:37;;;;;;;22.07;15.08;;;;;;;13.50;79.93;97373.69;1731724;82;25768;-86
2021/10/06 08:43:07;;;;;;;19.50;14.25;;;;;;;13.50;79.97;97379.11;1731717;82;25899;-86
2021/10/06 08:45:35;;;;;;;27.32;15.03;;;;;;;13.47;79.82;97379.03;1729211;81;27445;-85
2021/10/06 08:48:07;;;;;;;20.82;13.00;;;;;;;13.44;79.75;97378.66;1723828;81;26400;-86
2021/10/06 08:50:36;;;;;;;18.52;13.38;;;;;;;13.42;79.71;97373.98;1731901;82;25828;-86
2021/10/06 08:53:03;;;;;;;24.65;15.78;;;;;;;13.40;79.79;97374.77;1723801;81;26429;-85
2021/10/06 08:55:30;;;;;;;20.05;13.95;;;;;;;13.38;79.85;97379.59;1711092;82;25841;-85
2021/10/06 08:58:02;;;;;;;19.75;13.32;;;;;;;13.33;79.73;97374.31;1719407;82;27558;-85
2021/10/06 09:00:30;;;;;;;20.48;14.03;;;;;;;13.34;79.75;97380.04;1707542;82;25821;-85
2021/10/06 09:03:09;;;;;;;18.95;14.68;;;;;;;13.36;79.80;97384.41;1731714;81;25756;-84
2021/10/06 09:05:35;;;;;;;19.95;14.68;;;;;;;13.33;79.80;97378.38;1716908;82;26437;-84
2021/10/06 09:08:05;;;;;;;21.15;14.00;;;;;;;13.32;79.84;97376.73;1716742;82;25650;-85
2021/10/06 09:10:34;;;;;;;17.80;12.95;;;;;;;13.29;79.71;97369.05;1731815;81;27422;-84
2021/10/06 09:13:08;;;;;;;20.05;12.18;;;;;;;13.25;79.46;97376.00;1731428;82;25942;-84
2021/10/06 09:15:44;;;;;;;18.35;12.93;;;;;;;13.21;79.36;97385.64;1731611;82;25666;-84
2021/10/06 09:18:21;;;;;;;18.55;12.43;;;;;;;13.16;79.27;97377.34;1731446;82;26525;-85
2021/10/06 09:20:48;;;;;;;18.30;13.28;;;;;;;13.13;79.34;97375.61;1731793;81;25738;-85
2021/10/06 09:23:19;;;;;;;16.73;12.78;;;;;;;13.16;79.40;97375.20;1731710;82;27637;-85
2021/10/06 09:26:01;;;;;;;18.73;13.10;;;;;;;13.15;79.41;97382.50;1731803;82;25702;-84
2021/10/06 09:28:43;;;;;;;18.87;13.70;;;;;;;13.15;79.29;97386.56;1731987;82;30289;-84
2021/10/06 09:31:18;;;;;;;27.77;17.87;;;;;;;13.14;79.38;97387.62;1732001;82;25753;-84
2021/10/06 09:33:57;;;;;;;30.23;21.15;;;;;;;13.13;79.54;97389.99;1731685;82;26395;-84
2021/10/06 09:36:31;;;;;;;29.55;22.77;;;;;;;13.12;79.57;97388.34;1731512;81;27365;-84
2021/10/06 09:39:05;;;;;;;26.97;18.25;;;;;;;13.14;79.65;97391.69;1731315;81;25832;-84
2021/10/06 09:41:49;;;;;;;21.27;16.00;;;;;;;13.16;79.57;97386.83;1731432;82;25814;-85
2021/10/06 09:44:20;;;;;;;23.42;17.10;;;;;;;13.18;79.80;97383.38;1731821;81;26238;-84
2021/10/06 09:46:58;;;;;;;30.62;17.95;;;;;;;13.21;79.83;97388.34;1731815;82;25647;-84
2021/10/06 09:49:37;;;;;;;25.10;18.85;;;;;;;13.25;79.87;97394.14;1731497;81;27418;-84
2021/10/06 09:52:17;;;;;;;29.67;20.52;;;;;;;13.26;79.90;97389.86;1731507;82;25683;-84
2021/10/06 09:54:56;;;;;;;25.50;19.30;;;;;;;13.29;79.96;97385.84;1731903;81;25706;-84
2021/10/06 09:57:38;;;;;;;27.62;18.92;;;;;;;13.31;79.89;97388.63;1731630;82;26453;-84
2021/10/06 10:00:17;;;;;;;31.85;20.62;;;;;;;13.32;79.70;97392.99;1731931;82;25766;-85
2021/10/06 10:02:44;;;;;;;23.67;18.05;;;;;;;13.34;79.85;97397.66;1731768;81;28155;-85
2021/10/06 10:05:13;;;;;;;24.92;18.35;;;;;;;13.36;79.99;97396.08;1731378;82;25698;-84
2021/10/06 10:07:40;;;;;;;23.57;18.77;;;;;;;13.39;79.93;97401.58;1731603;82;25764;-85
2021/10/06 10:10:11;;;;;;;25.43;18.02;;;;;;;13.42;79.87;97397.03;1731494;82;26484;-85
2021/10/06 10:12:37;;;;;;;25.00;18.23;;;;;;;13.44;79.88;97397.64;1731745;82;26281;-84
2021/10/06 10:15:06;;;;;;;23.60;17.32;;;;;;;13.50;79.95;97403.52;1731569;82;27291;-85
2021/10/06 10:17:32;;;;;;;25.97;17.17;;;;;;;13.57;79.92;97406.95;1731596;82;25730;-85
2021/10/06 10:20:03;;;;;;;24.60;16.05;;;;;;;13.64;79.78;97398.20;1731804;81;25299;-85
2021/10/06 10:22:33;;;;;;;19.45;15.15;;;;;;;13.69;79.69;97398.32;1731709;81;26527;-85
2021/10/06 10:25:22;;;;;;;21.17;14.87;;;;;;;13.74;79.53;97405.78;1731704;82;25768;-87
2021/10/06 10:28:23;;;;;;;19.67;15.05;;;;;;;13.77;79.36;97408.83;1731675;81;27042;-85
2021/10/06 10:31:01;;;;;;;19.77;14.20;;;;;;;13.79;79.31;97408.08;1731554;82;25932;-85
2021/10/06 10:33:49;;;;;;;22.67;14.87;;;;;;;13.77;79.08;97403.41;1731358;81;25702;-85
2021/10/06 10:36:39;;;;;;;22.27;14.40;;;;;;;13.81;79.18;97412.75;1731666;81;25796;-85
2021/10/06 10:39:27;;;;;;;21.33;14.95;;;;;;;13.84;79.23;97408.75;1747492;79;25824;-86
2021/10/06 10:41:57;;;;;;;24.63;16.52;;;;;;;13.87;79.10;97409.66;1761209;79;28197;-86
2021/10/06 10:44:28;;;;;;;21.93;15.78;;;;;;;13.88;78.86;97404.00;1761406;79;25715;-86
2021/10/06 10:47:00;;;;;;;21.33;15.75;;;;;;;13.89;78.92;97397.48;1762895;81;25728;-85
2021/10/06 10:49:31;;;;;;;23.87;16.30;;;;;;;13.89;79.08;97400.72;1763601;79;25883;-85
2021/10/06 10:51:58;;;;;;;23.15;16.30;;;;;;;13.90;79.21;97391.00;1753093;81;26374;-85
2021/10/06 10:54:37;;;;;;;18.65;13.05;;;;;;;13.90;79.34;97395.07;1754399;79;27450;-85
2021/10/06 10:57:22;;;;;;;17.65;11.12;;;;;;;13.93;79.23;97397.33;1763419;79;25821;-86
2021/10/06 10:59:53;;;;;;;12.70;10.93;;;;;;;13.96;78.96;97395.51;1763435;79;25748;-85
2021/10/06 11:02:33;;;;;;;18.50;11.57;;;;;;;13.95;78.73;97398.45;1755025;79;25773;-85
2021/10/06 11:05:06;;;;;;;15.68;11.03;;;;;;;13.94;78.61;97394.91;1763562;79;25764;-85
2021/10/06 11:07:51;;;;;;;16.10;11.93;;;;;;;13.96;78.62;97395.51;1763265;79;27354;-86
2021/10/06 11:10:20;;;;;;;18.23;12.05;;;;;;;13.98;78.80;97396.64;1763557;81;25771;-85
2021/10/06 11:13:06;;;;;;;19.00;12.33;;;;;;;14.01;78.86;97395.62;1757143;79;25750;-85
2021/10/06 11:15:35;;;;;;;20.27;12.25;;;;;;;14.02;78.90;97386.95;1762145;79;25700;-85
2021/10/06 11:18:17;;;;;;;16.40;11.75;;;;;;;14.09;78.91;97393.64;1762261;79;25835;-85
2021/10/06 11:21:00;;;;;;;15.70;11.60;;;;;;;14.12;79.01;97390.47;1751708;79;28181;-85
2021/10/06 11:23:39;;;;;;;16.87;12.78;;;;;;;14.15;79.00;97390.80;1762769;79;25895;-85